Anacostia, District of Columbia
Current Conditions -  °F | °C
As of 1:52 PM on Thursday 27 Nov 2014 (Local Time) from KDCA Reporting Station
Scattered Clouds Scattered Clouds  
Wind Chill: 45°   Ceiling: Unl
Heat Index: 49°   Visibility: 10mi
Dew Point: 28°   Wind: 9mph
Humidity: 44%   Direction: 320°NW
Pressure: 30.05"   Gusts: NA
Location:  38.8618°N, 77.0026°W
Report Text: KDCA 271852Z 32008KT 10SM SCT035 SCT075 SCT250 09/M02 A3005 RMK AO2 SLP174 T00941022
Loading
Personal Weather Stations






























Interactive Weather Map New forecast layout! Learn more

10-Day Weather Forecast

Advertisements
Track Severe Weather on mobile